LGA weather

Public forecast

Using degrees Fahrenheit for public forecast. Weather courtesy of forecast.io.

Current aviation weather report (METAR) for La Guardia Airport

Retrieved 2020/08/10 10:51 UTC (14 minutes ago):

KLGA 101051Z 20004KT 10SM FEW150 26/22 A3004 RMK AO2 SLP172 T02610222

Aviation forecast (TAF) for La Guardia Airport

Retrieved 2020/08/10 06:27 UTC (5 hours ago):

TAF KLGA 100525Z 1006/1112 24006KT P6SM SCT060 FM101900 19012KT P6SM SCT060 FM110100 21008KT P6SM SKC FM110600 22005KT P6SM SKC